createdAt,value
2019-04-03T00:00:00.438Z,58.15
2019-04-03T00:02:26.455Z,58.89
2019-04-03T00:04:52.284Z,59.00
2019-04-03T00:07:18.612Z,58.76
2019-04-03T00:09:44.640Z,59.08
2019-04-03T00:12:11.038Z,58.58
2019-04-03T00:14:37.289Z,58.67
2019-04-03T00:17:04.436Z,58.19
2019-04-03T00:19:30.561Z,58.09
2019-04-03T00:21:56.586Z,57.32
2019-04-03T00:24:23.026Z,56.78
2019-04-03T00:26:49.044Z,56.64
2019-04-03T00:29:14.887Z,57.00
2019-04-03T00:31:40.875Z,56.48
2019-04-03T00:34:06.795Z,55.88
2019-04-03T00:36:33.157Z,55.91
2019-04-03T00:38:59.045Z,55.66
2019-04-03T00:41:25.187Z,55.79
2019-04-03T00:43:51.398Z,55.35
2019-04-03T00:46:17.226Z,55.67
2019-04-03T00:48:43.135Z,54.31
2019-04-03T00:51:09.400Z,54.06
2019-04-03T00:53:35.349Z,54.21
2019-04-03T00:56:01.432Z,54.00
2019-04-03T00:58:40.145Z,53.96
2019-04-03T01:01:08.081Z,54.52
2019-04-03T01:03:34.123Z,54.35
2019-04-03T01:06:00.042Z,54.12
2019-04-03T01:08:26.163Z,54.09
2019-04-03T01:10:52.614Z,54.17
2019-04-03T01:13:18.621Z,54.58
2019-04-03T01:15:44.647Z,54.04
2019-04-03T01:18:10.567Z,54.36
2019-04-03T01:20:36.714Z,53.99
2019-04-03T01:23:03.128Z,54.36
2019-04-03T01:25:29.041Z,54.15
2019-04-03T01:27:54.960Z,54.45
2019-04-03T01:30:20.998Z,54.13
2019-04-03T01:32:47.185Z,53.65
2019-04-03T01:35:13.273Z,54.30
2019-04-03T01:37:39.358Z,53.92
2019-04-03T01:40:05.487Z,54.56
2019-04-03T01:42:31.372Z,53.97
2019-04-03T01:44:57.326Z,54.62
2019-04-03T01:47:23.245Z,55.35
2019-04-03T01:49:49.575Z,55.21
2019-04-03T01:52:15.497Z,56.10
2019-04-03T01:54:41.419Z,55.49
2019-04-03T01:57:07.608Z,55.72
2019-04-03T01:59:33.871Z,55.49
2019-04-03T02:01:59.786Z,55.45
2019-04-03T02:04:25.919Z,55.32
2019-04-03T02:06:52.141Z,55.28
2019-04-03T02:09:18.227Z,55.48
2019-04-03T02:11:44.320Z,55.08
2019-04-03T02:14:10.312Z,55.11
2019-04-03T02:16:36.333Z,54.90
2019-04-03T02:19:02.458Z,54.91
2019-04-03T02:21:28.382Z,55.48
2019-04-03T02:23:54.304Z,55.20
2019-04-03T02:26:20.332Z,55.42
2019-04-03T02:28:46.351Z,54.76
2019-04-03T02:31:12.207Z,55.00
2019-04-03T02:33:38.517Z,55.30
2019-04-03T02:36:04.548Z,55.12
2019-04-03T02:38:30.468Z,54.32
2019-04-03T02:40:56.357Z,54.32
2019-04-03T02:43:22.249Z,54.14
2019-04-03T02:45:48.340Z,54.25
2019-04-03T02:48:14.437Z,54.58
2019-04-03T02:50:40.453Z,53.74
2019-04-03T02:53:06.981Z,54.01
2019-04-03T02:55:33.494Z,53.84
2019-04-03T02:57:59.492Z,54.24
2019-04-03T03:00:26.055Z,54.26
2019-04-03T03:02:52.404Z,53.99
2019-04-03T03:05:19.055Z,53.36
2019-04-03T03:07:46.268Z,53.52
2019-04-03T03:10:12.496Z,53.73
2019-04-03T03:12:39.055Z,53.92
2019-04-03T03:15:11.205Z,54.46
2019-04-03T03:17:36.349Z,54.79
2019-04-03T03:20:07.024Z,54.70
2019-04-03T03:22:33.388Z,55.09
2019-04-03T03:25:00.951Z,55.29
2019-04-03T03:27:28.102Z,56.31
2019-04-03T03:29:58.450Z,56.52
2019-04-03T03:32:31.395Z,57.01
2019-04-03T03:35:06.458Z,57.11
2019-04-03T03:37:21.460Z,57.94
2019-04-03T03:39:48.434Z,58.51
2019-04-03T03:42:14.438Z,58.81
2019-04-03T03:44:43.917Z,58.72
2019-04-03T03:47:09.799Z,59.51
2019-04-03T03:49:36.272Z,59.45
2019-04-03T03:52:05.240Z,59.33
2019-04-03T03:54:31.777Z,59.63
2019-04-03T03:56:58.144Z,59.07
2019-04-03T03:59:25.231Z,58.92
2019-04-03T04:01:51.358Z,58.00
2019-04-03T04:04:17.482Z,57.97
2019-04-03T04:06:43.767Z,58.92
2019-04-03T04:09:09.731Z,58.68
2019-04-03T04:11:36.416Z,58.66
2019-04-03T04:14:03.035Z,59.94
2019-04-03T04:16:29.147Z,58.99
2019-04-03T04:18:56.992Z,58.98
2019-04-03T04:21:24.644Z,59.40
2019-04-03T04:23:50.908Z,59.88
2019-04-03T04:26:17.081Z,59.71
2019-04-03T04:28:43.543Z,60.05
2019-04-03T04:31:12.338Z,59.99
2019-04-03T04:33:37.378Z,60.47
2019-04-03T04:36:03.453Z,60.89
2019-04-03T04:38:29.470Z,61.12
2019-04-03T04:40:55.394Z,61.17
2019-04-03T04:43:21.316Z,61.99
2019-04-03T04:45:47.235Z,61.40
2019-04-03T04:48:15.793Z,61.23
2019-04-03T04:50:40.986Z,61.05
2019-04-03T04:53:07.047Z,60.63
2019-04-03T04:55:34.772Z,60.06
2019-04-03T04:58:01.108Z,60.01
2019-04-03T05:00:29.522Z,60.50
2019-04-03T05:02:55.026Z,60.86
2019-04-03T05:05:20.947Z,60.53
2019-04-03T05:07:46.969Z,60.83
2019-04-03T05:10:13.504Z,62.91
2019-04-03T05:12:42.604Z,61.06
2019-04-03T05:15:08.730Z,63.99
2019-04-03T05:17:34.782Z,64.32
2019-04-03T05:20:01.592Z,61.50
2019-04-03T05:22:27.524Z,62.52
2019-04-03T05:24:53.429Z,62.50
2019-04-03T05:27:19.451Z,62.57
2019-04-03T05:29:46.099Z,62.92
2019-04-03T05:32:12.209Z,63.48
2019-04-03T05:34:38.236Z,62.84
2019-04-03T05:37:04.191Z,62.71
2019-04-03T05:39:30.198Z,62.72
2019-04-03T05:41:58.367Z,62.34
2019-04-03T05:44:24.154Z,63.09
2019-04-03T05:46:50.192Z,63.31
2019-04-03T05:49:18.608Z,62.72
2019-04-03T05:51:44.181Z,64.50
2019-04-03T05:54:13.617Z,63.68
2019-04-03T05:56:38.683Z,63.72
2019-04-03T05:59:04.765Z,65.00
2019-04-03T06:01:30.730Z,65.00
2019-04-03T06:03:56.754Z,63.80
2019-04-03T06:06:22.676Z,63.69
2019-04-03T06:08:50.636Z,63.96
2019-04-03T06:11:16.581Z,63.65
2019-04-03T06:13:42.484Z,64.20
2019-04-03T06:16:08.425Z,65.46
2019-04-03T06:18:34.330Z,65.83
2019-04-03T06:21:00.560Z,66.14
2019-04-03T06:23:26.472Z,64.27
2019-04-03T06:25:52.392Z,65.23
2019-04-03T06:28:18.246Z,63.66
2019-04-03T06:30:44.363Z,62.44
2019-04-03T06:33:10.539Z,62.05
2019-04-03T06:35:36.834Z,61.31
2019-04-03T06:38:02.820Z,61.28
2019-04-03T06:40:28.730Z,61.01
2019-04-03T06:42:54.859Z,61.61
2019-04-03T06:45:21.129Z,59.75
2019-04-03T06:47:47.328Z,65.41
2019-04-03T06:50:14.523Z,69.59
2019-04-03T06:52:41.526Z,68.28
2019-04-03T06:55:07.428Z,68.29
2019-04-03T06:57:33.665Z,64.23
2019-04-03T06:59:59.832Z,63.66
2019-04-03T07:02:27.992Z,62.43
2019-04-03T07:04:53.875Z,62.70
2019-04-03T07:07:32.552Z,63.06
2019-04-03T07:09:50.647Z,59.92
2019-04-03T07:12:16.472Z,60.12
2019-04-03T07:14:42.673Z,58.90
2019-04-03T07:17:08.902Z,59.44
2019-04-03T07:19:34.823Z,60.26
2019-04-03T07:22:01.100Z,59.58
2019-04-03T07:24:27.074Z,58.97
2019-04-03T07:26:52.972Z,58.45
2019-04-03T07:29:19.114Z,58.90
2019-04-03T07:31:45.240Z,59.06
2019-04-03T07:34:11.365Z,59.33
2019-04-03T07:36:37.188Z,58.77
2019-04-03T07:39:06.308Z,58.95
2019-04-03T07:41:32.177Z,59.66
2019-04-03T07:43:58.895Z,58.86
2019-04-03T07:46:25.187Z,59.09
2019-04-03T07:48:51.087Z,59.45
2019-04-03T07:51:17.163Z,59.41
2019-04-03T07:53:43.026Z,59.75
2019-04-03T07:56:08.905Z,59.41
2019-04-03T07:58:34.765Z,59.82
2019-04-03T08:01:00.695Z,60.37
2019-04-03T08:03:26.665Z,60.46
2019-04-03T08:05:55.797Z,60.08
2019-04-03T08:08:20.393Z,61.41
2019-04-03T08:10:46.313Z,62.46
2019-04-03T08:13:12.248Z,62.61
2019-04-03T08:15:38.153Z,63.68
2019-04-03T08:18:04.174Z,63.02
2019-04-03T08:20:31.452Z,64.52
2019-04-03T08:22:57.655Z,66.42
2019-04-03T08:25:23.966Z,66.20
2019-04-03T08:27:50.009Z,66.84
2019-04-03T08:30:16.361Z,66.82
2019-04-03T08:32:42.362Z,67.16
2019-04-03T08:35:19.293Z,65.97
2019-04-03T08:37:36.708Z,67.02
2019-04-03T08:40:04.828Z,65.07
2019-04-03T08:42:32.626Z,66.09
2019-04-03T08:44:58.720Z,66.31
2019-04-03T08:47:24.641Z,65.99
2019-04-03T08:49:50.560Z,65.07
2019-04-03T08:52:16.397Z,65.42
2019-04-03T08:54:42.712Z,65.47
2019-04-03T08:57:08.772Z,66.37
2019-04-03T08:59:34.596Z,67.78
2019-04-03T09:02:00.673Z,66.21
2019-04-03T09:04:26.520Z,67.28
2019-04-03T09:06:54.154Z,66.93
2019-04-03T09:09:20.261Z,66.72
2019-04-03T09:11:46.232Z,66.19
2019-04-03T09:14:12.116Z,66.91
2019-04-03T09:16:38.040Z,65.89
2019-04-03T09:19:04.161Z,66.39
2019-04-03T09:21:30.290Z,65.25
2019-04-03T09:23:57.872Z,66.57
2019-04-03T09:26:24.449Z,66.21
2019-04-03T09:28:50.503Z,65.89
2019-04-03T09:31:18.880Z,66.59
2019-04-03T09:33:44.600Z,67.19
2019-04-03T09:36:10.785Z,67.48
2019-04-03T09:38:36.676Z,67.25
2019-04-03T09:41:02.970Z,67.84
2019-04-03T09:43:29.124Z,67.70
2019-04-03T09:45:55.123Z,68.79
2019-04-03T09:48:21.306Z,67.44
2019-04-03T09:50:47.375Z,67.37
2019-04-03T09:53:13.292Z,68.18
2019-04-03T09:55:39.741Z,67.50
2019-04-03T09:58:06.159Z,67.88
2019-04-03T10:00:32.135Z,67.90
2019-04-03T10:02:58.143Z,67.33
2019-04-03T10:05:24.152Z,67.16
2019-04-03T10:07:50.348Z,67.81
2019-04-03T10:10:17.073Z,65.35
2019-04-03T10:12:47.337Z,65.48
2019-04-03T10:15:11.389Z,64.83
2019-04-03T10:17:38.594Z,64.54
2019-04-03T10:20:06.710Z,64.68
2019-04-03T10:22:32.930Z,63.50
2019-04-03T10:25:00.573Z,63.53
2019-04-03T10:27:26.731Z,63.63
2019-04-03T10:29:55.262Z,61.70
2019-04-03T10:32:20.513Z,61.56
2019-04-03T10:34:46.787Z,60.46
2019-04-03T10:37:14.456Z,61.27
2019-04-03T10:39:43.829Z,61.51
2019-04-03T10:42:08.696Z,62.51
2019-04-03T10:44:34.719Z,62.06
2019-04-03T10:47:00.741Z,62.04
2019-04-03T10:49:27.251Z,64.66
2019-04-03T10:51:53.616Z,63.35
2019-04-03T10:54:19.937Z,63.96
2019-04-03T10:56:46.237Z,61.73
2019-04-03T10:59:13.672Z,63.92
2019-04-03T11:01:40.403Z,64.59
2019-04-03T11:04:06.700Z,68.62
2019-04-03T11:06:32.816Z,71.38
2019-04-03T11:08:58.732Z,73.31
2019-04-03T11:11:24.833Z,71.09
2019-04-03T11:13:50.929Z,70.58
2019-04-03T11:16:17.116Z,70.65
2019-04-03T11:18:43.645Z,70.10
2019-04-03T11:21:12.190Z,71.51
2019-04-03T11:23:43.437Z,71.43
2019-04-03T11:26:05.841Z,71.60
2019-04-03T11:28:31.931Z,70.21
2019-04-03T11:31:01.255Z,70.76
2019-04-03T11:33:25.721Z,69.84
2019-04-03T11:35:53.338Z,68.05
2019-04-03T11:38:27.086Z,67.91
2019-04-03T11:40:50.301Z,69.32
2019-04-03T11:43:15.745Z,66.80
2019-04-03T11:45:42.077Z,67.21
2019-04-03T11:48:08.074Z,66.63
2019-04-03T11:50:34.018Z,65.77
2019-04-03T11:53:21.961Z,63.55
2019-04-03T11:55:47.828Z,64.64
2019-04-03T11:58:13.922Z,62.80
2019-04-03T12:00:40.013Z,61.54
2019-04-03T12:03:05.941Z,63.18
2019-04-03T12:05:31.875Z,61.79
2019-04-03T12:07:58.502Z,61.48
2019-04-03T12:10:25.793Z,62.30
2019-04-03T12:12:52.766Z,62.30
2019-04-03T12:15:21.591Z,63.40
2019-04-03T12:17:47.105Z,62.11
2019-04-03T12:20:16.250Z,62.11
2019-04-03T12:22:42.827Z,61.54
2019-04-03T12:25:09.282Z,59.70
2019-04-03T12:27:36.597Z,60.85
2019-04-03T12:30:06.366Z,57.91
2019-04-03T12:32:39.347Z,56.88
2019-04-03T12:35:00.314Z,56.75
2019-04-03T12:37:27.367Z,55.05
2019-04-03T12:39:53.294Z,55.94
2019-04-03T12:42:19.304Z,55.54
2019-04-03T12:44:45.225Z,54.82
2019-04-03T12:47:13.057Z,54.82
2019-04-03T12:49:39.218Z,53.60
2019-04-03T12:52:05.490Z,55.19
2019-04-03T12:54:31.465Z,55.02
2019-04-03T12:57:00.247Z,55.23
2019-04-03T12:59:26.128Z,54.66
2019-04-03T13:01:52.091Z,55.14
2019-04-03T13:04:18.013Z,55.37
2019-04-03T13:06:44.513Z,54.67
2019-04-03T13:09:10.780Z,52.07
2019-04-03T13:11:36.796Z,51.88
2019-04-03T13:14:03.260Z,52.87
2019-04-03T13:16:30.480Z,51.92
2019-04-03T13:18:56.401Z,51.47
2019-04-03T13:21:22.785Z,51.55
2019-04-03T13:23:48.754Z,50.34
2019-04-03T13:26:14.675Z,50.91
2019-04-03T13:28:41.114Z,51.52
2019-04-03T13:31:07.702Z,51.06
2019-04-03T13:33:33.629Z,50.71
2019-04-03T13:35:59.528Z,51.19
2019-04-03T13:38:28.196Z,51.13
2019-04-03T13:40:53.978Z,50.26
2019-04-03T13:43:21.614Z,49.29
2019-04-03T13:45:47.980Z,49.98
2019-04-03T13:48:17.386Z,49.41
2019-04-03T13:50:45.498Z,48.30
2019-04-03T13:53:11.512Z,46.65
2019-04-03T13:55:40.034Z,48.16
2019-04-03T13:58:05.359Z,49.72
2019-04-03T14:00:32.464Z,49.35
2019-04-03T14:02:59.294Z,50.62
2019-04-03T14:05:27.445Z,49.63
2019-04-03T14:07:53.287Z,48.93
2019-04-03T14:10:19.267Z,48.62
2019-04-03T14:12:45.826Z,45.99
2019-04-03T14:15:12.126Z,47.88
2019-04-03T14:17:38.497Z,49.33
2019-04-03T14:20:06.260Z,49.67
2019-04-03T14:22:32.681Z,47.46
2019-04-03T14:24:58.777Z,49.56
2019-04-03T14:27:29.406Z,49.72
2019-04-03T14:29:52.666Z,48.92
2019-04-03T14:32:20.689Z,49.30
2019-04-03T14:34:47.916Z,50.17
2019-04-03T14:37:13.961Z,50.84
2019-04-03T14:39:41.284Z,51.63
2019-04-03T14:42:09.471Z,50.91
2019-04-03T14:44:38.139Z,49.46
2019-04-03T14:47:05.732Z,51.32
2019-04-03T14:49:33.273Z,51.48
2019-04-03T14:51:59.566Z,50.34
2019-04-03T14:54:25.780Z,50.53
2019-04-03T14:56:52.394Z,51.16
2019-04-03T14:59:18.351Z,49.22
2019-04-03T15:01:44.271Z,50.61
2019-04-03T15:04:10.294Z,51.47
2019-04-03T15:06:36.320Z,53.47
2019-04-03T15:09:04.519Z,53.09
2019-04-03T15:11:30.838Z,52.04
2019-04-03T15:13:57.360Z,52.25
2019-04-03T15:16:23.376Z,53.20
2019-04-03T15:18:49.296Z,53.17
2019-04-03T15:21:15.336Z,54.35
2019-04-03T15:23:42.064Z,57.75
2019-04-03T15:26:08.146Z,55.29
2019-04-03T15:28:34.060Z,55.64
2019-04-03T15:31:00.881Z,56.79
2019-04-03T15:33:27.419Z,56.17
2019-04-03T15:35:53.516Z,57.19
2019-04-03T15:38:19.846Z,57.19
2019-04-03T15:40:46.059Z,56.77
2019-04-03T15:43:15.707Z,56.51
2019-04-03T15:45:40.003Z,55.05
2019-04-03T15:48:06.072Z,57.27
2019-04-03T15:50:36.335Z,57.27
2019-04-03T15:53:01.277Z,56.09
2019-04-03T15:55:27.467Z,57.52
2019-04-03T15:57:53.950Z,57.52
2019-04-03T16:00:20.365Z,56.06
2019-04-03T16:02:47.217Z,57.49
2019-04-03T16:05:13.865Z,57.49
2019-04-03T16:07:41.511Z,58.19
2019-04-03T16:10:08.353Z,59.80
2019-04-03T16:12:35.889Z,57.27
2019-04-03T16:15:08.638Z,56.75
2019-04-03T16:17:37.581Z,58.37
2019-04-03T16:20:03.979Z,59.30
2019-04-03T16:22:31.620Z,57.82
2019-04-03T16:24:58.083Z,58.59
2019-04-03T16:27:24.335Z,60.68
2019-04-03T16:29:50.728Z,60.80
2019-04-03T16:32:16.662Z,60.65
2019-04-03T16:34:42.765Z,61.17
2019-04-03T16:37:09.406Z,62.82
2019-04-03T16:39:35.834Z,63.76
2019-04-03T16:42:02.473Z,64.18
2019-04-03T16:44:28.767Z,63.14
2019-04-03T16:46:54.664Z,63.10
2019-04-03T16:49:22.765Z,63.16
2019-04-03T16:51:48.646Z,63.35
2019-04-03T16:54:14.476Z,63.38
2019-04-03T16:56:40.375Z,62.94
2019-04-03T16:59:07.456Z,63.76
2019-04-03T17:01:33.775Z,64.39
2019-04-03T17:04:03.226Z,64.86
2019-04-03T17:06:28.230Z,64.32
2019-04-03T17:08:54.434Z,64.14
2019-04-03T17:11:20.401Z,63.83
2019-04-03T17:13:46.408Z,64.04
2019-04-03T17:16:14.459Z,63.81
2019-04-03T17:18:40.141Z,63.61
2019-04-03T17:21:06.236Z,63.33
2019-04-03T17:23:32.520Z,63.18
2019-04-03T17:25:58.421Z,63.79
2019-04-03T17:28:26.349Z,64.00
2019-04-03T17:30:52.458Z,63.74
2019-04-03T17:33:18.515Z,63.73
2019-04-03T17:35:47.323Z,63.47
2019-04-03T17:38:12.135Z,63.92
2019-04-03T17:40:41.820Z,63.82
2019-04-03T17:43:07.650Z,63.94
2019-04-03T17:45:33.520Z,64.54
2019-04-03T17:47:59.501Z,65.31
2019-04-03T17:50:25.477Z,65.78
2019-04-03T17:52:51.440Z,65.87
2019-04-03T17:55:17.314Z,65.88
2019-04-03T17:57:45.340Z,66.21
2019-04-03T18:00:13.317Z,66.99
2019-04-03T18:02:39.255Z,67.68
2019-04-03T18:05:06.525Z,68.24
2019-04-03T18:07:32.515Z,68.58
2019-04-03T18:09:58.482Z,67.97
2019-04-03T18:12:24.307Z,67.54
2019-04-03T18:14:50.180Z,67.83
2019-04-03T18:17:16.009Z,67.53
2019-04-03T18:19:42.388Z,67.66
2019-04-03T18:22:08.308Z,67.84
2019-04-03T18:24:34.192Z,67.95
2019-04-03T18:27:02.232Z,67.10
2019-04-03T18:29:28.446Z,67.79
2019-04-03T18:31:54.324Z,66.84
2019-04-03T18:34:21.145Z,66.77
2019-04-03T18:36:47.036Z,66.69
2019-04-03T18:39:13.078Z,66.48
2019-04-03T18:41:38.962Z,65.98
2019-04-03T18:44:05.011Z,66.15
2019-04-03T18:47:16.083Z,65.71
2019-04-03T18:49:01.655Z,65.49
2019-04-03T18:51:27.868Z,65.26
2019-04-03T18:53:54.112Z,65.51
2019-04-03T18:56:19.998Z,65.12
2019-04-03T18:58:45.834Z,65.02
2019-04-03T19:01:11.766Z,65.16
2019-04-03T19:03:37.639Z,65.61
2019-04-03T19:06:03.584Z,66.04
2019-04-03T19:08:29.478Z,66.06
2019-04-03T19:11:02.015Z,66.92
2019-04-03T19:13:23.433Z,66.76
2019-04-03T19:15:50.636Z,67.73
2019-04-03T19:18:19.717Z,68.37
2019-04-03T19:20:44.933Z,68.93
2019-04-03T19:23:11.163Z,70.75
2019-04-03T19:25:37.561Z,73.23
2019-04-03T19:28:04.048Z,71.50
2019-04-03T19:30:30.553Z,72.44
2019-04-03T19:32:56.457Z,71.72
2019-04-03T19:35:22.413Z,70.74
2019-04-03T19:37:48.307Z,73.82
2019-04-03T19:40:14.144Z,74.99
2019-04-03T19:42:40.163Z,75.43
2019-04-03T19:45:07.529Z,75.72
2019-04-03T19:47:33.641Z,78.22
2019-04-03T19:50:00.820Z,78.78
2019-04-03T19:52:26.990Z,79.18
2019-04-03T19:54:53.174Z,78.50
2019-04-03T19:57:19.265Z,77.87
2019-04-03T19:59:47.137Z,78.48
2019-04-03T20:02:13.256Z,78.83
2019-04-03T20:04:40.307Z,78.44
2019-04-03T20:07:06.229Z,79.01
2019-04-03T20:09:32.896Z,77.76
2019-04-03T20:11:59.298Z,77.83
2019-04-03T20:14:25.421Z,77.36
2019-04-03T20:16:52.786Z,76.78
2019-04-03T20:19:19.650Z,76.59
2019-04-03T20:21:45.737Z,77.10
2019-04-03T20:24:13.310Z,77.58
2019-04-03T20:26:39.629Z,75.92
2019-04-03T20:29:05.855Z,75.80
2019-04-03T20:31:35.535Z,74.59
2019-04-03T20:34:00.152Z,74.55
2019-04-03T20:36:26.278Z,75.07
2019-04-03T20:38:52.198Z,75.52
2019-04-03T20:41:18.126Z,74.58
2019-04-03T20:43:47.213Z,74.42
2019-04-03T20:46:12.115Z,75.50
2019-04-03T20:48:38.167Z,75.08
2019-04-03T20:51:04.569Z,74.24
2019-04-03T20:53:30.586Z,75.97
2019-04-03T20:55:58.116Z,74.21
2019-04-03T20:58:24.381Z,74.81
2019-04-03T21:01:05.745Z,73.68
2019-04-03T21:03:18.670Z,74.37
2019-04-03T21:05:44.592Z,74.61
2019-04-03T21:08:10.512Z,74.00
2019-04-03T21:10:36.431Z,74.25
2019-04-03T21:13:02.351Z,75.06
2019-04-03T21:15:28.238Z,75.96
2019-04-03T21:17:54.360Z,74.90
2019-04-03T21:20:21.946Z,74.32
2019-04-03T21:22:48.389Z,74.43
2019-04-03T21:25:14.309Z,74.31
2019-04-03T21:27:40.727Z,75.01
2019-04-03T21:30:09.013Z,74.86
2019-04-03T21:32:35.354Z,74.64
2019-04-03T21:35:03.981Z,74.70
2019-04-03T21:37:29.236Z,74.92
2019-04-03T21:39:55.363Z,76.01
2019-04-03T21:42:21.384Z,75.93
2019-04-03T21:44:47.613Z,75.12
2019-04-03T21:47:13.642Z,75.41
2019-04-03T21:49:39.465Z,75.52
2019-04-03T21:52:05.373Z,75.84
2019-04-03T21:54:32.460Z,74.89
2019-04-03T21:56:58.648Z,74.12
2019-04-03T21:59:24.570Z,73.91
2019-04-03T22:01:50.586Z,74.79
2019-04-03T22:04:16.506Z,73.45
2019-04-03T22:06:42.633Z,72.98
2019-04-03T22:09:10.497Z,73.43
2019-04-03T22:11:36.997Z,73.52
2019-04-03T22:14:03.054Z,73.83
2019-04-03T22:16:28.978Z,73.91
2019-04-03T22:18:55.522Z,74.91
2019-04-03T22:21:21.737Z,75.14
2019-04-03T22:23:47.658Z,75.07
2019-04-03T22:26:14.194Z,74.06
2019-04-03T22:28:40.111Z,73.65
2019-04-03T22:31:06.043Z,74.25
2019-04-03T22:33:31.975Z,74.33
2019-04-03T22:35:57.875Z,73.73
2019-04-03T22:38:23.795Z,74.77
2019-04-03T22:40:49.870Z,74.40
2019-04-03T22:43:16.207Z,74.65
2019-04-03T22:45:42.373Z,73.59
2019-04-03T22:48:08.294Z,73.58
2019-04-03T22:50:35.412Z,73.73
2019-04-03T22:53:01.773Z,75.38
2019-04-03T22:55:27.694Z,75.39
2019-04-03T22:57:53.613Z,75.62
2019-04-03T23:00:19.533Z,76.57
2019-04-03T23:02:45.455Z,77.46
2019-04-03T23:05:11.689Z,79.58
2019-04-03T23:07:38.008Z,78.71
2019-04-03T23:10:05.571Z,76.76
2019-04-03T23:12:33.178Z,77.92
2019-04-03T23:14:59.252Z,78.34
2019-04-03T23:17:25.170Z,78.10
2019-04-03T23:19:51.680Z,78.28
2019-04-03T23:22:18.549Z,78.59
2019-04-03T23:24:44.673Z,77.46
2019-04-03T23:27:10.625Z,77.24
2019-04-03T23:29:36.786Z,76.35
2019-04-03T23:32:02.921Z,76.89
2019-04-03T23:34:28.968Z,76.87
2019-04-03T23:36:55.094Z,77.07
2019-04-03T23:39:21.241Z,77.88
2019-04-03T23:41:47.137Z,77.30
2019-04-03T23:44:13.263Z,77.24
2019-04-03T23:46:39.184Z,77.21
2019-04-03T23:49:05.106Z,78.23
2019-04-03T23:51:31.537Z,77.18
2019-04-03T23:53:57.457Z,78.34
2019-04-03T23:56:23.379Z,77.20
2019-04-03T23:58:49.500Z,77.51
